sensor_id;sensor_type;location;lat;lon;timestamp;P1;durP1;ratioP1;P2;durP2;ratioP2
8636;SDS011;4356;49.068;8.658;2023-08-07T00:00:02;0.30;;;0.30;;
8636;SDS011;4356;49.068;8.658;2023-08-07T00:02:29;0.50;;;0.50;;
8636;SDS011;4356;49.068;8.658;2023-08-07T00:04:54;1.07;;;0.30;;
8636;SDS011;4356;49.068;8.658;2023-08-07T00:07:19;0.40;;;0.40;;
8636;SDS011;4356;49.068;8.658;2023-08-07T00:09:45;0.30;;;0.30;;
8636;SDS011;4356;49.068;8.658;2023-08-07T00:12:10;0.50;;;0.50;;
8636;SDS011;4356;49.068;8.658;2023-08-07T00:14:36;0.40;;;0.40;;
8636;SDS011;4356;49.068;8.658;2023-08-07T00:17:01;0.40;;;0.40;;
8636;SDS011;4356;49.068;8.658;2023-08-07T00:19:27;0.53;;;0.53;;
8636;SDS011;4356;49.068;8.658;2023-08-07T00:21:53;0.77;;;0.37;;
8636;SDS011;4356;49.068;8.658;2023-08-07T00:24:18;0.47;;;0.47;;
8636;SDS011;4356;49.068;8.658;2023-08-07T00:26:43;0.63;;;0.63;;
8636;SDS011;4356;49.068;8.658;2023-08-07T00:29:09;0.27;;;0.27;;
8636;SDS011;4356;49.068;8.658;2023-08-07T00:31:34;1.33;;;0.73;;
8636;SDS011;4356;49.068;8.658;2023-08-07T00:33:59;0.30;;;0.30;;
8636;SDS011;4356;49.068;8.658;2023-08-07T00:36:25;0.23;;;0.23;;
8636;SDS011;4356;49.068;8.658;2023-08-07T00:38:53;0.37;;;0.37;;
8636;SDS011;4356;49.068;8.658;2023-08-07T00:41:18;0.30;;;0.30;;
8636;SDS011;4356;49.068;8.658;2023-08-07T00:43:44;0.23;;;0.23;;
8636;SDS011;4356;49.068;8.658;2023-08-07T00:46:09;0.10;;;0.10;;
8636;SDS011;4356;49.068;8.658;2023-08-07T00:48:35;0.37;;;0.37;;
8636;SDS011;4356;49.068;8.658;2023-08-07T00:51:01;0.33;;;0.33;;
8636;SDS011;4356;49.068;8.658;2023-08-07T00:53:28;0.40;;;0.40;;
8636;SDS011;4356;49.068;8.658;2023-08-07T00:55:53;0.37;;;0.37;;
8636;SDS011;4356;49.068;8.658;2023-08-07T00:58:19;0.47;;;0.47;;
8636;SDS011;4356;49.068;8.658;2023-08-07T01:00:44;0.37;;;0.37;;
8636;SDS011;4356;49.068;8.658;2023-08-07T01:03:11;0.30;;;0.30;;
8636;SDS011;4356;49.068;8.658;2023-08-07T01:05:39;0.30;;;0.30;;
8636;SDS011;4356;49.068;8.658;2023-08-07T01:08:04;0.10;;;0.10;;
8636;SDS011;4356;49.068;8.658;2023-08-07T01:16:18;0.30;;;0.30;;
8636;SDS011;4356;49.068;8.658;2023-08-07T01:18:50;0.47;;;0.47;;
8636;SDS011;4356;49.068;8.658;2023-08-07T01:21:19;0.60;;;0.50;;
8636;SDS011;4356;49.068;8.658;2023-08-07T01:23:49;0.27;;;0.27;;
8636;SDS011;4356;49.068;8.658;2023-08-07T01:26:15;0.50;;;0.50;;
8636;SDS011;4356;49.068;8.658;2023-08-07T01:28:42;0.40;;;0.40;;
8636;SDS011;4356;49.068;8.658;2023-08-07T01:31:14;0.50;;;0.50;;
8636;SDS011;4356;49.068;8.658;2023-08-07T01:33:48;0.30;;;0.30;;
8636;SDS011;4356;49.068;8.658;2023-08-07T01:36:22;0.27;;;0.27;;
8636;SDS011;4356;49.068;8.658;2023-08-07T01:38:49;0.50;;;0.50;;
8636;SDS011;4356;49.068;8.658;2023-08-07T01:41:16;0.63;;;0.40;;
8636;SDS011;4356;49.068;8.658;2023-08-07T01:43:42;0.40;;;0.40;;
8636;SDS011;4356;49.068;8.658;2023-08-07T01:46:08;0.67;;;0.30;;
8636;SDS011;4356;49.068;8.658;2023-08-07T01:48:33;0.30;;;0.30;;
8636;SDS011;4356;49.068;8.658;2023-08-07T01:50:58;0.27;;;0.27;;
8636;SDS011;4356;49.068;8.658;2023-08-07T01:53:24;0.43;;;0.43;;
8636;SDS011;4356;49.068;8.658;2023-08-07T01:55:49;0.20;;;0.20;;
8636;SDS011;4356;49.068;8.658;2023-08-07T01:58:14;1.13;;;0.23;;
8636;SDS011;4356;49.068;8.658;2023-08-07T02:00:40;0.47;;;0.47;;
8636;SDS011;4356;49.068;8.658;2023-08-07T02:03:05;0.20;;;0.20;;
8636;SDS011;4356;49.068;8.658;2023-08-07T02:05:30;0.20;;;0.20;;
8636;SDS011;4356;49.068;8.658;2023-08-07T02:07:56;0.37;;;0.37;;
8636;SDS011;4356;49.068;8.658;2023-08-07T02:10:21;0.33;;;0.33;;
8636;SDS011;4356;49.068;8.658;2023-08-07T02:12:48;0.27;;;0.27;;
8636;SDS011;4356;49.068;8.658;2023-08-07T02:15:13;0.40;;;0.40;;
8636;SDS011;4356;49.068;8.658;2023-08-07T02:17:39;0.60;;;0.60;;
8636;SDS011;4356;49.068;8.658;2023-08-07T02:20:06;0.40;;;0.40;;
8636;SDS011;4356;49.068;8.658;2023-08-07T02:22:32;0.67;;;0.67;;
8636;SDS011;4356;49.068;8.658;2023-08-07T02:24:57;0.20;;;0.20;;
8636;SDS011;4356;49.068;8.658;2023-08-07T02:27:23;0.63;;;0.63;;
8636;SDS011;4356;49.068;8.658;2023-08-07T02:29:48;0.40;;;0.40;;
8636;SDS011;4356;49.068;8.658;2023-08-07T02:32:13;0.40;;;0.40;;
8636;SDS011;4356;49.068;8.658;2023-08-07T02:34:39;0.43;;;0.40;;
8636;SDS011;4356;49.068;8.658;2023-08-07T02:37:04;0.50;;;0.50;;
8636;SDS011;4356;49.068;8.658;2023-08-07T02:39:30;0.43;;;0.43;;
8636;SDS011;4356;49.068;8.658;2023-08-07T02:41:55;0.20;;;0.20;;
8636;SDS011;4356;49.068;8.658;2023-08-07T02:44:20;0.70;;;0.70;;
8636;SDS011;4356;49.068;8.658;2023-08-07T02:46:46;0.70;;;0.70;;
8636;SDS011;4356;49.068;8.658;2023-08-07T02:49:11;0.57;;;0.57;;
8636;SDS011;4356;49.068;8.658;2023-08-07T02:51:37;0.30;;;0.30;;
8636;SDS011;4356;49.068;8.658;2023-08-07T02:54:02;0.33;;;0.33;;
8636;SDS011;4356;49.068;8.658;2023-08-07T02:56:28;0.30;;;0.30;;
8636;SDS011;4356;49.068;8.658;2023-08-07T02:58:53;0.30;;;0.30;;
8636;SDS011;4356;49.068;8.658;2023-08-07T03:01:19;0.40;;;0.40;;
8636;SDS011;4356;49.068;8.658;2023-08-07T03:03:46;0.20;;;0.20;;
8636;SDS011;4356;49.068;8.658;2023-08-07T03:06:11;0.33;;;0.33;;
8636;SDS011;4356;49.068;8.658;2023-08-07T03:08:36;0.30;;;0.30;;
8636;SDS011;4356;49.068;8.658;2023-08-07T03:11:02;0.43;;;0.43;;
8636;SDS011;4356;49.068;8.658;2023-08-07T03:13:27;1.27;;;1.17;;
8636;SDS011;4356;49.068;8.658;2023-08-07T03:15:59;0.60;;;0.60;;
8636;SDS011;4356;49.068;8.658;2023-08-07T03:18:26;0.40;;;0.40;;
8636;SDS011;4356;49.068;8.658;2023-08-07T03:20:51;0.60;;;0.60;;
8636;SDS011;4356;49.068;8.658;2023-08-07T03:23:17;0.50;;;0.50;;
8636;SDS011;4356;49.068;8.658;2023-08-07T03:25:42;0.40;;;0.40;;
8636;SDS011;4356;49.068;8.658;2023-08-07T03:28:07;0.60;;;0.60;;
8636;SDS011;4356;49.068;8.658;2023-08-07T03:30:33;0.40;;;0.40;;
8636;SDS011;4356;49.068;8.658;2023-08-07T03:32:58;0.57;;;0.57;;
8636;SDS011;4356;49.068;8.658;2023-08-07T03:35:27;0.60;;;0.60;;
8636;SDS011;4356;49.068;8.658;2023-08-07T03:37:52;0.30;;;0.30;;
8636;SDS011;4356;49.068;8.658;2023-08-07T03:40:17;0.60;;;0.60;;
8636;SDS011;4356;49.068;8.658;2023-08-07T03:42:43;6.70;;;0.60;;
8636;SDS011;4356;49.068;8.658;2023-08-07T03:45:08;0.50;;;0.50;;
8636;SDS011;4356;49.068;8.658;2023-08-07T03:47:34;0.53;;;0.53;;
8636;SDS011;4356;49.068;8.658;2023-08-07T03:49:59;0.43;;;0.37;;
8636;SDS011;4356;49.068;8.658;2023-08-07T03:52:25;0.57;;;0.30;;
8636;SDS011;4356;49.068;8.658;2023-08-07T03:54:50;0.20;;;0.20;;
8636;SDS011;4356;49.068;8.658;2023-08-07T03:57:15;0.30;;;0.30;;
8636;SDS011;4356;49.068;8.658;2023-08-07T03:59:41;0.80;;;0.80;;
8636;SDS011;4356;49.068;8.658;2023-08-07T04:02:06;0.40;;;0.40;;
8636;SDS011;4356;49.068;8.658;2023-08-07T04:04:32;0.50;;;0.50;;
8636;SDS011;4356;49.068;8.658;2023-08-07T04:06:57;0.50;;;0.50;;
8636;SDS011;4356;49.068;8.658;2023-08-07T04:09:22;0.30;;;0.30;;
8636;SDS011;4356;49.068;8.658;2023-08-07T04:11:48;0.30;;;0.30;;
8636;SDS011;4356;49.068;8.658;2023-08-07T04:14:13;0.50;;;0.50;;
8636;SDS011;4356;49.068;8.658;2023-08-07T04:16:39;0.40;;;0.40;;
8636;SDS011;4356;49.068;8.658;2023-08-07T04:19:04;0.20;;;0.20;;
8636;SDS011;4356;49.068;8.658;2023-08-07T04:21:32;0.50;;;0.50;;
8636;SDS011;4356;49.068;8.658;2023-08-07T04:23:58;3.20;;;0.87;;
8636;SDS011;4356;49.068;8.658;2023-08-07T04:26:25;0.40;;;0.40;;
8636;SDS011;4356;49.068;8.658;2023-08-07T04:28:51;0.77;;;0.77;;
8636;SDS011;4356;49.068;8.658;2023-08-07T04:31:16;0.40;;;0.40;;
8636;SDS011;4356;49.068;8.658;2023-08-07T04:33:42;0.80;;;0.80;;
8636;SDS011;4356;49.068;8.658;2023-08-07T04:36:07;0.33;;;0.33;;
8636;SDS011;4356;49.068;8.658;2023-08-07T04:38:35;0.63;;;0.40;;
8636;SDS011;4356;49.068;8.658;2023-08-07T04:41:00;0.50;;;0.50;;
8636;SDS011;4356;49.068;8.658;2023-08-07T04:43:26;0.30;;;0.30;;
8636;SDS011;4356;49.068;8.658;2023-08-07T04:45:53;0.47;;;0.47;;
8636;SDS011;4356;49.068;8.658;2023-08-07T04:48:18;0.83;;;0.20;;
8636;SDS011;4356;49.068;8.658;2023-08-07T04:50:50;0.23;;;0.23;;
8636;SDS011;4356;49.068;8.658;2023-08-07T04:53:15;0.17;;;0.17;;
8636;SDS011;4356;49.068;8.658;2023-08-07T04:55:41;0.40;;;0.40;;
8636;SDS011;4356;49.068;8.658;2023-08-07T04:58:06;0.20;;;0.20;;
8636;SDS011;4356;49.068;8.658;2023-08-07T05:00:32;0.40;;;0.40;;
8636;SDS011;4356;49.068;8.658;2023-08-07T05:02:57;0.60;;;0.60;;
8636;SDS011;4356;49.068;8.658;2023-08-07T05:05:23;0.10;;;0.10;;
8636;SDS011;4356;49.068;8.658;2023-08-07T05:07:49;0.20;;;0.20;;
8636;SDS011;4356;49.068;8.658;2023-08-07T05:10:14;0.10;;;0.10;;
8636;SDS011;4356;49.068;8.658;2023-08-07T05:12:39;0.27;;;0.27;;
8636;SDS011;4356;49.068;8.658;2023-08-07T05:15:05;2.63;;;0.40;;
8636;SDS011;4356;49.068;8.658;2023-08-07T05:17:31;0.40;;;0.40;;
8636;SDS011;4356;49.068;8.658;2023-08-07T05:19:57;0.70;;;0.70;;
8636;SDS011;4356;49.068;8.658;2023-08-07T05:22:22;0.50;;;0.50;;
8636;SDS011;4356;49.068;8.658;2023-08-07T05:24:48;0.43;;;0.43;;
8636;SDS011;4356;49.068;8.658;2023-08-07T05:27:14;0.80;;;0.80;;
8636;SDS011;4356;49.068;8.658;2023-08-07T05:29:39;0.50;;;0.50;;
8636;SDS011;4356;49.068;8.658;2023-08-07T05:32:12;0.20;;;0.20;;
8636;SDS011;4356;49.068;8.658;2023-08-07T05:34:38;0.17;;;0.17;;
8636;SDS011;4356;49.068;8.658;2023-08-07T05:37:05;0.40;;;0.40;;
8636;SDS011;4356;49.068;8.658;2023-08-07T05:39:31;0.40;;;0.40;;
8636;SDS011;4356;49.068;8.658;2023-08-07T05:41:57;0.20;;;0.20;;
8636;SDS011;4356;49.068;8.658;2023-08-07T05:44:25;0.47;;;0.47;;
8636;SDS011;4356;49.068;8.658;2023-08-07T05:46:51;0.47;;;0.47;;
8636;SDS011;4356;49.068;8.658;2023-08-07T05:49:16;0.17;;;0.17;;
8636;SDS011;4356;49.068;8.658;2023-08-07T05:51:42;0.30;;;0.30;;
8636;SDS011;4356;49.068;8.658;2023-08-07T05:54:07;0.33;;;0.33;;
8636;SDS011;4356;49.068;8.658;2023-08-07T05:56:33;0.60;;;0.60;;
8636;SDS011;4356;49.068;8.658;2023-08-07T05:58:59;0.57;;;0.57;;
8636;SDS011;4356;49.068;8.658;2023-08-07T06:01:25;0.77;;;0.53;;
8636;SDS011;4356;49.068;8.658;2023-08-07T06:03:55;0.60;;;0.60;;
8636;SDS011;4356;49.068;8.658;2023-08-07T06:06:21;0.40;;;0.40;;
8636;SDS011;4356;49.068;8.658;2023-08-07T06:08:47;0.40;;;0.40;;
8636;SDS011;4356;49.068;8.658;2023-08-07T06:11:15;0.23;;;0.23;;
8636;SDS011;4356;49.068;8.658;2023-08-07T06:13:41;0.30;;;0.30;;
8636;SDS011;4356;49.068;8.658;2023-08-07T06:16:06;0.23;;;0.23;;
8636;SDS011;4356;49.068;8.658;2023-08-07T06:18:32;0.23;;;0.23;;
8636;SDS011;4356;49.068;8.658;2023-08-07T06:20:59;0.83;;;0.63;;
8636;SDS011;4356;49.068;8.658;2023-08-07T06:23:24;0.63;;;0.63;;
8636;SDS011;4356;49.068;8.658;2023-08-07T06:25:50;0.80;;;0.80;;
8636;SDS011;4356;49.068;8.658;2023-08-07T06:28:15;0.77;;;0.77;;
8636;SDS011;4356;49.068;8.658;2023-08-07T06:30:41;1.27;;;1.10;;
8636;SDS011;4356;49.068;8.658;2023-08-07T06:33:07;1.43;;;1.33;;
8636;SDS011;4356;49.068;8.658;2023-08-07T06:35:37;1.10;;;1.00;;
8636;SDS011;4356;49.068;8.658;2023-08-07T06:38:03;1.00;;;1.00;;
8636;SDS011;4356;49.068;8.658;2023-08-07T06:40:28;1.40;;;1.30;;
8636;SDS011;4356;49.068;8.658;2023-08-07T06:42:54;1.77;;;1.67;;
8636;SDS011;4356;49.068;8.658;2023-08-07T06:45:19;0.63;;;0.63;;
8636;SDS011;4356;49.068;8.658;2023-08-07T06:47:45;1.30;;;1.30;;
8636;SDS011;4356;49.068;8.658;2023-08-07T06:50:10;1.33;;;1.23;;
8636;SDS011;4356;49.068;8.658;2023-08-07T06:52:35;1.47;;;0.97;;
8636;SDS011;4356;49.068;8.658;2023-08-07T06:55:01;1.10;;;1.03;;
8636;SDS011;4356;49.068;8.658;2023-08-07T06:57:27;0.97;;;0.97;;
8636;SDS011;4356;49.068;8.658;2023-08-07T06:59:54;0.73;;;0.73;;
8636;SDS011;4356;49.068;8.658;2023-08-07T07:02:23;2.13;;;1.30;;
8636;SDS011;4356;49.068;8.658;2023-08-07T07:04:48;1.50;;;1.40;;
8636;SDS011;4356;49.068;8.658;2023-08-07T07:07:14;1.00;;;0.90;;
8636;SDS011;4356;49.068;8.658;2023-08-07T07:09:40;0.80;;;0.80;;
8636;SDS011;4356;49.068;8.658;2023-08-07T07:12:05;0.97;;;0.97;;
8636;SDS011;4356;49.068;8.658;2023-08-07T07:14:32;1.80;;;0.97;;
8636;SDS011;4356;49.068;8.658;2023-08-07T07:16:57;0.93;;;0.93;;
8636;SDS011;4356;49.068;8.658;2023-08-07T07:19:23;0.77;;;0.77;;
8636;SDS011;4356;49.068;8.658;2023-08-07T07:21:48;1.40;;;1.37;;
8636;SDS011;4356;49.068;8.658;2023-08-07T07:24:13;0.87;;;0.87;;
8636;SDS011;4356;49.068;8.658;2023-08-07T07:26:39;1.17;;;1.17;;
8636;SDS011;4356;49.068;8.658;2023-08-07T07:29:04;0.93;;;0.93;;
8636;SDS011;4356;49.068;8.658;2023-08-07T07:31:30;2.33;;;1.33;;
8636;SDS011;4356;49.068;8.658;2023-08-07T07:33:55;1.03;;;1.03;;
8636;SDS011;4356;49.068;8.658;2023-08-07T07:36:20;0.80;;;0.80;;
8636;SDS011;4356;49.068;8.658;2023-08-07T07:38:46;0.77;;;0.77;;
8636;SDS011;4356;49.068;8.658;2023-08-07T07:41:14;1.87;;;1.77;;
8636;SDS011;4356;49.068;8.658;2023-08-07T07:43:40;0.70;;;0.70;;
8636;SDS011;4356;49.068;8.658;2023-08-07T07:46:06;1.40;;;1.30;;
8636;SDS011;4356;49.068;8.658;2023-08-07T07:48:32;1.00;;;1.00;;
8636;SDS011;4356;49.068;8.658;2023-08-07T07:51:01;0.80;;;0.80;;
8636;SDS011;4356;49.068;8.658;2023-08-07T07:53:27;4.93;;;1.17;;
8636;SDS011;4356;49.068;8.658;2023-08-07T07:55:53;1.03;;;1.03;;
8636;SDS011;4356;49.068;8.658;2023-08-07T07:58:20;1.00;;;1.00;;
8636;SDS011;4356;49.068;8.658;2023-08-07T08:00:46;1.13;;;0.90;;
8636;SDS011;4356;49.068;8.658;2023-08-07T08:03:12;0.93;;;0.93;;
8636;SDS011;4356;49.068;8.658;2023-08-07T08:05:38;0.90;;;0.90;;
8636;SDS011;4356;49.068;8.658;2023-08-07T08:08:04;3.80;;;1.47;;
8636;SDS011;4356;49.068;8.658;2023-08-07T08:10:30;1.07;;;1.07;;
8636;SDS011;4356;49.068;8.658;2023-08-07T08:12:56;0.93;;;0.83;;
8636;SDS011;4356;49.068;8.658;2023-08-07T08:15:21;1.03;;;1.03;;
8636;SDS011;4356;49.068;8.658;2023-08-07T08:17:47;1.17;;;1.17;;
8636;SDS011;4356;49.068;8.658;2023-08-07T08:20:13;1.10;;;1.00;;
8636;SDS011;4356;49.068;8.658;2023-08-07T08:22:45;0.90;;;0.90;;
8636;SDS011;4356;49.068;8.658;2023-08-07T08:25:11;1.53;;;1.43;;
8636;SDS011;4356;49.068;8.658;2023-08-07T08:27:39;0.83;;;0.83;;
8636;SDS011;4356;49.068;8.658;2023-08-07T08:30:05;0.83;;;0.83;;
8636;SDS011;4356;49.068;8.658;2023-08-07T08:32:32;0.80;;;0.80;;
8636;SDS011;4356;49.068;8.658;2023-08-07T08:34:57;1.33;;;1.07;;
8636;SDS011;4356;49.068;8.658;2023-08-07T08:37:23;1.40;;;1.13;;
8636;SDS011;4356;49.068;8.658;2023-08-07T08:39:49;1.23;;;1.20;;
8636;SDS011;4356;49.068;8.658;2023-08-07T08:42:14;1.47;;;1.47;;
8636;SDS011;4356;49.068;8.658;2023-08-07T08:44:44;2.90;;;1.23;;
8636;SDS011;4356;49.068;8.658;2023-08-07T08:47:16;1.53;;;1.43;;
8636;SDS011;4356;49.068;8.658;2023-08-07T08:49:43;1.73;;;1.63;;
8636;SDS011;4356;49.068;8.658;2023-08-07T08:52:15;2.00;;;1.90;;
8636;SDS011;4356;49.068;8.658;2023-08-07T08:54:42;2.13;;;2.03;;
8636;SDS011;4356;49.068;8.658;2023-08-07T08:57:08;1.97;;;1.80;;
8636;SDS011;4356;49.068;8.658;2023-08-07T08:59:34;1.77;;;1.67;;
8636;SDS011;4356;49.068;8.658;2023-08-07T09:02:00;2.00;;;1.90;;
8636;SDS011;4356;49.068;8.658;2023-08-07T09:04:26;2.10;;;1.67;;
8636;SDS011;4356;49.068;8.658;2023-08-07T09:06:52;2.50;;;2.30;;
8636;SDS011;4356;49.068;8.658;2023-08-07T09:09:19;1.87;;;1.87;;
8636;SDS011;4356;49.068;8.658;2023-08-07T09:11:46;1.00;;;1.00;;
8636;SDS011;4356;49.068;8.658;2023-08-07T09:14:15;1.27;;;1.20;;
8636;SDS011;4356;49.068;8.658;2023-08-07T09:16:42;1.77;;;1.67;;
8636;SDS011;4356;49.068;8.658;2023-08-07T09:19:09;1.67;;;1.57;;
8636;SDS011;4356;49.068;8.658;2023-08-07T09:21:35;3.07;;;1.90;;
8636;SDS011;4356;49.068;8.658;2023-08-07T09:24:01;1.80;;;1.70;;
8636;SDS011;4356;49.068;8.658;2023-08-07T09:26:26;1.47;;;1.43;;
8636;SDS011;4356;49.068;8.658;2023-08-07T09:28:52;1.53;;;1.53;;
8636;SDS011;4356;49.068;8.658;2023-08-07T09:31:19;1.80;;;1.70;;
8636;SDS011;4356;49.068;8.658;2023-08-07T09:33:46;1.70;;;1.60;;
8636;SDS011;4356;49.068;8.658;2023-08-07T09:36:13;2.10;;;2.00;;
8636;SDS011;4356;49.068;8.658;2023-08-07T09:38:39;1.87;;;1.77;;
8636;SDS011;4356;49.068;8.658;2023-08-07T09:41:04;3.07;;;1.83;;
8636;SDS011;4356;49.068;8.658;2023-08-07T09:43:33;2.17;;;2.07;;
8636;SDS011;4356;49.068;8.658;2023-08-07T09:46:03;5.30;;;4.83;;
8636;SDS011;4356;49.068;8.658;2023-08-07T09:48:30;2.07;;;1.97;;
8636;SDS011;4356;49.068;8.658;2023-08-07T09:50:59;3.07;;;2.87;;
8636;SDS011;4356;49.068;8.658;2023-08-07T09:53:26;1.87;;;1.73;;
8636;SDS011;4356;49.068;8.658;2023-08-07T09:55:53;3.07;;;2.77;;
8636;SDS011;4356;49.068;8.658;2023-08-07T09:58:18;2.83;;;2.60;;
8636;SDS011;4356;49.068;8.658;2023-08-07T10:00:45;2.40;;;2.20;;
8636;SDS011;4356;49.068;8.658;2023-08-07T10:03:11;1.63;;;1.53;;
8636;SDS011;4356;49.068;8.658;2023-08-07T10:05:38;1.70;;;1.63;;
8636;SDS011;4356;49.068;8.658;2023-08-07T10:08:03;2.33;;;2.20;;
8636;SDS011;4356;49.068;8.658;2023-08-07T10:10:29;1.80;;;1.70;;
8636;SDS011;4356;49.068;8.658;2023-08-07T10:12:59;2.07;;;2.00;;
8636;SDS011;4356;49.068;8.658;2023-08-07T10:15:26;1.37;;;1.37;;
8636;SDS011;4356;49.068;8.658;2023-08-07T10:17:52;1.20;;;1.20;;
8636;SDS011;4356;49.068;8.658;2023-08-07T10:20:17;1.83;;;1.73;;
8636;SDS011;4356;49.068;8.658;2023-08-07T10:22:43;1.37;;;1.27;;
8636;SDS011;4356;49.068;8.658;2023-08-07T10:25:10;1.17;;;1.17;;
8636;SDS011;4356;49.068;8.658;2023-08-07T10:27:36;1.17;;;1.00;;
8636;SDS011;4356;49.068;8.658;2023-08-07T10:30:04;2.00;;;1.90;;
8636;SDS011;4356;49.068;8.658;2023-08-07T10:32:33;2.10;;;2.00;;
8636;SDS011;4356;49.068;8.658;2023-08-07T10:35:02;2.47;;;1.97;;
8636;SDS011;4356;49.068;8.658;2023-08-07T10:40:03;1.50;;;1.43;;
8636;SDS011;4356;49.068;8.658;2023-08-07T10:43:13;1.93;;;1.83;;
8636;SDS011;4356;49.068;8.658;2023-08-07T10:45:23;3.13;;;2.03;;
8636;SDS011;4356;49.068;8.658;2023-08-07T10:50:28;2.07;;;1.90;;
8636;SDS011;4356;49.068;8.658;2023-08-07T10:52:55;2.00;;;1.90;;
8636;SDS011;4356;49.068;8.658;2023-08-07T10:55:20;2.47;;;2.27;;
8636;SDS011;4356;49.068;8.658;2023-08-07T10:57:48;3.03;;;1.70;;
8636;SDS011;4356;49.068;8.658;2023-08-07T11:00:16;2.97;;;1.70;;
8636;SDS011;4356;49.068;8.658;2023-08-07T11:02:47;1.70;;;1.33;;
8636;SDS011;4356;49.068;8.658;2023-08-07T11:05:13;2.17;;;2.07;;
8636;SDS011;4356;49.068;8.658;2023-08-07T11:07:39;1.47;;;1.37;;
8636;SDS011;4356;49.068;8.658;2023-08-07T11:10:06;1.33;;;1.33;;
8636;SDS011;4356;49.068;8.658;2023-08-07T11:12:31;1.30;;;1.20;;
8636;SDS011;4356;49.068;8.658;2023-08-07T11:14:57;1.97;;;1.87;;
8636;SDS011;4356;49.068;8.658;2023-08-07T11:17:25;1.97;;;1.87;;
8636;SDS011;4356;49.068;8.658;2023-08-07T11:19:52;1.40;;;1.40;;
8636;SDS011;4356;49.068;8.658;2023-08-07T11:22:19;3.47;;;1.07;;
8636;SDS011;4356;49.068;8.658;2023-08-07T11:24:45;1.73;;;1.63;;
8636;SDS011;4356;49.068;8.658;2023-08-07T11:27:11;2.13;;;2.03;;
8636;SDS011;4356;49.068;8.658;2023-08-07T11:29:36;2.33;;;2.13;;
8636;SDS011;4356;49.068;8.658;2023-08-07T11:32:02;2.57;;;2.37;;
8636;SDS011;4356;49.068;8.658;2023-08-07T11:34:27;3.70;;;2.37;;
8636;SDS011;4356;49.068;8.658;2023-08-07T11:36:53;2.43;;;2.30;;
8636;SDS011;4356;49.068;8.658;2023-08-07T11:39:20;2.00;;;1.90;;
8636;SDS011;4356;49.068;8.658;2023-08-07T11:41:46;2.07;;;1.97;;
8636;SDS011;4356;49.068;8.658;2023-08-07T11:44:12;1.63;;;1.57;;
8636;SDS011;4356;49.068;8.658;2023-08-07T11:46:37;2.03;;;1.93;;
8636;SDS011;4356;49.068;8.658;2023-08-07T11:49:03;2.00;;;1.90;;
8636;SDS011;4356;49.068;8.658;2023-08-07T11:51:29;2.40;;;1.73;;
8636;SDS011;4356;49.068;8.658;2023-08-07T11:53:55;2.40;;;2.20;;
8636;SDS011;4356;49.068;8.658;2023-08-07T11:56:23;2.17;;;1.97;;
8636;SDS011;4356;49.068;8.658;2023-08-07T11:58:48;3.67;;;2.27;;
8636;SDS011;4356;49.068;8.658;2023-08-07T12:01:18;2.27;;;2.07;;
8636;SDS011;4356;49.068;8.658;2023-08-07T12:03:56;2.33;;;2.23;;
8636;SDS011;4356;49.068;8.658;2023-08-07T12:06:35;2.27;;;2.07;;
8636;SDS011;4356;49.068;8.658;2023-08-07T12:09:01;1.63;;;1.53;;
8636;SDS011;4356;49.068;8.658;2023-08-07T12:11:30;1.77;;;1.60;;
8636;SDS011;4356;49.068;8.658;2023-08-07T12:13:59;2.50;;;1.97;;
8636;SDS011;4356;49.068;8.658;2023-08-07T12:16:25;3.30;;;1.30;;
8636;SDS011;4356;49.068;8.658;2023-08-07T12:18:52;1.40;;;1.40;;
8636;SDS011;4356;49.068;8.658;2023-08-07T12:21:18;1.13;;;1.13;;
8636;SDS011;4356;49.068;8.658;2023-08-07T12:23:45;1.47;;;1.37;;
8636;SDS011;4356;49.068;8.658;2023-08-07T12:26:14;1.40;;;1.40;;
8636;SDS011;4356;49.068;8.658;2023-08-07T12:28:40;1.27;;;1.17;;
8636;SDS011;4356;49.068;8.658;2023-08-07T12:31:05;0.93;;;0.93;;
8636;SDS011;4356;49.068;8.658;2023-08-07T12:33:32;1.43;;;1.40;;
8636;SDS011;4356;49.068;8.658;2023-08-07T12:35:58;1.47;;;1.37;;
8636;SDS011;4356;49.068;8.658;2023-08-07T12:38:24;1.33;;;1.33;;
8636;SDS011;4356;49.068;8.658;2023-08-07T12:40:50;1.60;;;1.50;;
8636;SDS011;4356;49.068;8.658;2023-08-07T12:43:15;1.50;;;1.40;;
8636;SDS011;4356;49.068;8.658;2023-08-07T12:45:41;1.27;;;1.27;;
8636;SDS011;4356;49.068;8.658;2023-08-07T12:48:07;2.00;;;1.23;;
8636;SDS011;4356;49.068;8.658;2023-08-07T12:50:32;1.23;;;1.17;;
8636;SDS011;4356;49.068;8.658;2023-08-07T12:52:58;1.50;;;1.40;;
8636;SDS011;4356;49.068;8.658;2023-08-07T12:55:24;0.93;;;0.93;;
8636;SDS011;4356;49.068;8.658;2023-08-07T12:57:50;1.03;;;1.03;;
8636;SDS011;4356;49.068;8.658;2023-08-07T13:00:17;0.73;;;0.73;;
8636;SDS011;4356;49.068;8.658;2023-08-07T13:02:47;1.50;;;1.23;;
8636;SDS011;4356;49.068;8.658;2023-08-07T13:05:14;1.40;;;1.40;;
8636;SDS011;4356;49.068;8.658;2023-08-07T13:07:41;2.10;;;1.50;;
8636;SDS011;4356;49.068;8.658;2023-08-07T13:10:08;1.03;;;1.03;;
8636;SDS011;4356;49.068;8.658;2023-08-07T13:12:35;1.10;;;1.10;;
8636;SDS011;4356;49.068;8.658;2023-08-07T13:15:05;1.63;;;1.10;;
8636;SDS011;4356;49.068;8.658;2023-08-07T13:17:33;0.97;;;0.97;;
8636;SDS011;4356;49.068;8.658;2023-08-07T13:19:59;0.80;;;0.80;;
8636;SDS011;4356;49.068;8.658;2023-08-07T13:22:25;1.10;;;1.10;;
8636;SDS011;4356;49.068;8.658;2023-08-07T13:24:51;1.03;;;1.03;;
8636;SDS011;4356;49.068;8.658;2023-08-07T13:27:16;1.40;;;1.30;;
8636;SDS011;4356;49.068;8.658;2023-08-07T13:29:42;1.57;;;1.47;;
8636;SDS011;4356;49.068;8.658;2023-08-07T13:32:07;1.07;;;1.07;;
8636;SDS011;4356;49.068;8.658;2023-08-07T13:34:36;1.10;;;1.10;;
8636;SDS011;4356;49.068;8.658;2023-08-07T13:37:02;1.10;;;1.00;;
8636;SDS011;4356;49.068;8.658;2023-08-07T13:39:28;1.30;;;1.10;;
8636;SDS011;4356;49.068;8.658;2023-08-07T13:41:53;1.10;;;1.10;;
8636;SDS011;4356;49.068;8.658;2023-08-07T13:44:19;1.10;;;1.10;;
8636;SDS011;4356;49.068;8.658;2023-08-07T13:46:45;1.43;;;1.33;;
8636;SDS011;4356;49.068;8.658;2023-08-07T13:49:12;1.20;;;1.20;;
8636;SDS011;4356;49.068;8.658;2023-08-07T13:51:38;1.30;;;1.20;;
8636;SDS011;4356;49.068;8.658;2023-08-07T13:54:03;1.20;;;1.20;;
8636;SDS011;4356;49.068;8.658;2023-08-07T13:56:29;1.17;;;1.10;;
8636;SDS011;4356;49.068;8.658;2023-08-07T13:58:54;1.30;;;1.20;;
8636;SDS011;4356;49.068;8.658;2023-08-07T14:01:20;2.30;;;1.27;;
8636;SDS011;4356;49.068;8.658;2023-08-07T14:03:46;1.10;;;1.00;;
8636;SDS011;4356;49.068;8.658;2023-08-07T14:06:11;1.00;;;1.00;;
8636;SDS011;4356;49.068;8.658;2023-08-07T14:08:36;1.00;;;1.00;;
8636;SDS011;4356;49.068;8.658;2023-08-07T14:11:02;1.50;;;1.40;;
8636;SDS011;4356;49.068;8.658;2023-08-07T14:13:27;1.33;;;0.93;;
8636;SDS011;4356;49.068;8.658;2023-08-07T14:15:53;1.20;;;1.20;;
8636;SDS011;4356;49.068;8.658;2023-08-07T14:18:18;0.80;;;0.80;;
8636;SDS011;4356;49.068;8.658;2023-08-07T14:20:44;1.30;;;1.30;;
8636;SDS011;4356;49.068;8.658;2023-08-07T14:23:09;0.70;;;0.70;;
8636;SDS011;4356;49.068;8.658;2023-08-07T14:25:35;0.90;;;0.90;;
8636;SDS011;4356;49.068;8.658;2023-08-07T14:28:00;0.90;;;0.90;;
8636;SDS011;4356;49.068;8.658;2023-08-07T14:30:25;0.50;;;0.50;;
8636;SDS011;4356;49.068;8.658;2023-08-07T14:32:51;1.40;;;1.30;;
8636;SDS011;4356;49.068;8.658;2023-08-07T14:35:16;1.33;;;1.23;;
8636;SDS011;4356;49.068;8.658;2023-08-07T14:37:41;0.87;;;0.87;;
8636;SDS011;4356;49.068;8.658;2023-08-07T14:40:08;1.30;;;1.10;;
8636;SDS011;4356;49.068;8.658;2023-08-07T14:42:33;1.20;;;1.20;;
8636;SDS011;4356;49.068;8.658;2023-08-07T14:44:59;1.10;;;1.10;;
8636;SDS011;4356;49.068;8.658;2023-08-07T14:47:24;1.00;;;1.00;;
8636;SDS011;4356;49.068;8.658;2023-08-07T14:49:50;0.70;;;0.70;;
8636;SDS011;4356;49.068;8.658;2023-08-07T14:52:16;0.90;;;0.90;;
8636;SDS011;4356;49.068;8.658;2023-08-07T14:54:41;1.47;;;1.20;;
8636;SDS011;4356;49.068;8.658;2023-08-07T14:57:07;1.00;;;1.00;;
8636;SDS011;4356;49.068;8.658;2023-08-07T14:59:32;0.90;;;0.90;;
8636;SDS011;4356;49.068;8.658;2023-08-07T15:01:57;0.90;;;0.90;;
8636;SDS011;4356;49.068;8.658;2023-08-07T15:04:23;1.17;;;1.17;;
8636;SDS011;4356;49.068;8.658;2023-08-07T15:06:48;1.20;;;1.10;;
8636;SDS011;4356;49.068;8.658;2023-08-07T15:09:15;0.70;;;0.70;;
8636;SDS011;4356;49.068;8.658;2023-08-07T15:11:42;1.20;;;1.20;;
8636;SDS011;4356;49.068;8.658;2023-08-07T15:14:07;0.97;;;0.90;;
8636;SDS011;4356;49.068;8.658;2023-08-07T15:16:33;1.07;;;1.07;;
8636;SDS011;4356;49.068;8.658;2023-08-07T15:18:58;1.43;;;1.43;;